Arbutus, Maryland
Current Conditions -  °F | °C
As of 6:54 PM on Wednesday 26 Nov 2014 (Local Time) from KBWI Reporting Station
Overcast Overcast  
Wind Chill: 30°   Ceiling: 8000
Heat Index: 36°   Visibility: 10mi
Dew Point: 33°   Wind: 7mph
Humidity: 89%   Direction: 320°NW
Pressure: 29.92"   Gusts: NA
Location:  39.2187°N, 76.722°W
Report Text: KBWI 262354Z 32006KT 10SM FEW013 OVC080 02/01 A2992 RMK AO2 RAE50 SLP132 P0002 60021 T00220006 10022 20011 50003
Loading
Personal Weather Stations






























Interactive Weather Map New forecast layout! Learn more

10-Day Weather Forecast

Advertisements
Track Severe Weather on mobile